Time;durP1;ratioP1;P1;durP2;ratioP2;P2;SDS_P1;SDS_P2;PMS_P1;PMS_P2;Temp;Humidity;BMP_temperature;BMP_pressure;BME280_temperature;BME280_humidity;BME280_pressure;Samples;Min_cycle;Max_cycle;Signal;HPM_P1;HPM_P2
2023/01/06 00:00:37;;;;;;;28.33;9.45;;;;;;;11.31;100.00;101535.94;5100146;28;20058;-77
2023/01/06 00:03:03;;;;;;;31.83;8.35;;;;;;;11.38;100.00;101525.44;5100692;27;20079;-75
2023/01/06 00:05:30;;;;;;;33.75;8.65;;;;;;;11.33;100.00;101523.00;5099846;27;20119;-76
2023/01/06 00:07:57;;;;;;;24.98;7.93;;;;;;;11.33;100.00;101517.53;5100886;27;20031;-76
2023/01/06 00:10:23;;;;;;;48.53;9.20;;;;;;;11.39;100.00;101517.06;5133556;27;20112;-76
2023/01/06 00:12:49;;;;;;;30.95;7.55;;;;;;;11.34;100.00;101522.00;5136929;27;20424;-76
2023/01/06 00:15:16;;;;;;;22.25;6.72;;;;;;;11.37;100.00;101515.44;5100354;27;20109;-76
2023/01/06 00:17:41;;;;;;;20.20;6.65;;;;;;;11.33;100.00;101512.03;5101321;27;20027;-76
2023/01/06 00:20:08;;;;;;;20.67;6.75;;;;;;;11.36;100.00;101508.19;5116484;27;20027;-76
2023/01/06 00:22:33;;;;;;;19.90;6.65;;;;;;;11.41;100.00;101500.50;5117150;27;20042;-76
2023/01/06 00:24:59;;;;;;;19.98;5.25;;;;;;;11.32;100.00;101498.44;5116927;27;20031;-76
2023/01/06 00:27:24;;;;;;;16.65;4.90;;;;;;;11.26;100.00;101504.34;5132716;27;20153;-76
2023/01/06 00:29:50;;;;;;;19.15;5.75;;;;;;;11.28;100.00;101499.63;5116846;27;20031;-76
2023/01/06 00:32:16;;;;;;;13.38;5.20;;;;;;;11.20;100.00;101505.69;5135391;27;20031;-76
2023/01/06 00:34:42;;;;;;;18.92;5.28;;;;;;;11.26;100.00;101493.41;5116548;27;20044;-76
2023/01/06 00:37:08;;;;;;;13.02;4.68;;;;;;;11.24;100.00;101503.59;5097482;28;20111;-76
2023/01/06 00:39:33;;;;;;;28.58;4.50;;;;;;;11.19;100.00;101487.47;5114904;28;20119;-76
2023/01/06 00:42:05;;;;;;;16.42;4.57;;;;;;;11.25;100.00;101494.38;5112505;28;20035;-76
2023/01/06 00:44:36;;;;;;;20.10;3.97;;;;;;;11.24;100.00;101501.72;5110539;28;20451;-76
2023/01/06 00:47:07;;;;;;;15.18;4.22;;;;;;;11.23;100.00;101494.47;5093739;28;20027;-76
2023/01/06 00:49:33;;;;;;;15.43;4.50;;;;;;;11.30;100.00;101505.91;5116349;28;20083;-78
2023/01/06 00:51:58;;;;;;;15.55;4.47;;;;;;;11.28;100.00;101496.91;5113989;28;20031;-76
2023/01/06 00:54:24;;;;;;;12.40;3.97;;;;;;;11.20;100.00;101484.63;5094693;28;20040;-76
2023/01/06 00:56:52;;;;;;;11.20;3.20;;;;;;;11.18;100.00;101497.56;5110253;28;20470;-76
2023/01/06 00:59:22;;;;;;;13.95;4.15;;;;;;;11.30;100.00;101498.56;5095442;28;20020;-76
2023/01/06 01:01:51;;;;;;;12.57;3.80;;;;;;;11.29;100.00;101496.78;5088590;28;20436;-76
2023/01/06 01:04:18;;;;;;;12.75;3.40;;;;;;;11.31;100.00;101489.31;5078181;28;20532;-76
2023/01/06 01:06:45;;;;;;;14.82;3.55;;;;;;;11.25;100.00;101486.16;5105981;28;20023;-76
2023/01/06 01:09:20;;;;;;;15.88;3.58;;;;;;;11.25;100.00;101492.53;5096399;28;20044;-78
2023/01/06 01:12:19;;;;;;;15.88;3.50;;;;;;;11.21;100.00;101485.50;5110946;28;20076;-76
2023/01/06 01:14:45;;;;;;;14.43;4.13;;;;;;;11.35;100.00;101493.63;5113739;28;20043;-76
2023/01/06 01:17:12;;;;;;;10.23;3.47;;;;;;;11.26;100.00;101493.41;5116062;28;20054;-75
2023/01/06 01:19:38;;;;;;;11.05;3.55;;;;;;;11.35;100.00;101503.72;5114829;28;20036;-76
2023/01/06 01:22:05;;;;;;;10.60;3.30;;;;;;;11.35;100.00;101498.22;5079804;28;20031;-76
2023/01/06 01:24:31;;;;;;;18.42;4.00;;;;;;;11.32;100.00;101492.97;5102112;28;20115;-77
2023/01/06 01:26:56;;;;;;;9.30;3.55;;;;;;;11.22;100.00;101481.78;5097876;28;20403;-76
2023/01/06 01:29:22;;;;;;;12.50;3.08;;;;;;;11.27;100.00;101492.41;5112976;28;20496;-76
2023/01/06 01:31:47;;;;;;;13.90;2.63;;;;;;;11.26;100.00;101490.66;5083432;28;20024;-76
2023/01/06 01:34:15;;;;;;;9.55;2.97;;;;;;;11.32;100.00;101492.97;5096880;28;20119;-77
2023/01/06 01:36:42;;;;;;;15.68;2.95;;;;;;;11.29;100.00;101493.19;5118739;27;20028;-76
2023/01/06 01:39:08;;;;;;;12.98;2.70;;;;;;;11.15;100.00;101491.41;5105691;27;20035;-76
2023/01/06 01:41:34;;;;;;;12.95;2.78;;;;;;;11.27;100.00;101486.94;5120517;27;20080;-77
2023/01/06 01:44:41;;;;;;;11.45;2.75;;;;;;;11.20;100.00;101483.75;5104726;27;20035;-76
2023/01/06 01:47:09;;;;;;;11.20;2.55;;;;;;;11.23;100.00;101483.50;5094561;27;20055;-77
2023/01/06 01:49:37;;;;;;;15.82;3.45;;;;;;;11.29;100.00;101491.31;5122064;27;20019;-77
2023/01/06 01:52:03;;;;;;;9.13;2.00;;;;;;;11.18;100.00;101492.09;5132878;27;20027;-77
2023/01/06 01:54:31;;;;;;;11.63;2.10;;;;;;;11.27;100.00;101484.19;5121034;27;20031;-77
2023/01/06 01:57:03;;;;;;;6.40;2.05;;;;;;;11.28;100.00;101477.72;5120060;27;20023;-76
2023/01/06 01:59:32;;;;;;;11.30;2.20;;;;;;;11.18;100.00;101461.94;5120697;27;20094;-77
2023/01/06 02:01:57;;;;;;;6.28;2.08;;;;;;;11.27;100.00;101459.53;5102477;27;20031;-76
2023/01/06 02:04:25;;;;;;;3.70;2.05;;;;;;;11.25;100.00;101461.47;5121013;27;20038;-77
2023/01/06 02:06:51;;;;;;;9.73;1.75;;;;;;;11.28;100.00;101453.94;5120998;27;20140;-77
2023/01/06 02:09:56;;;;;;;12.10;2.00;;;;;;;11.32;100.00;101447.22;5103595;27;20035;-77
2023/01/06 02:12:21;;;;;;;6.53;1.58;;;;;;;11.19;100.00;101440.88;5098902;27;20043;-77
2023/01/06 02:14:47;;;;;;;13.05;2.45;;;;;;;11.24;100.00;101440.56;5101193;27;20126;-77
2023/01/06 02:17:39;;;;;;;21.75;2.53;;;;;;;11.22;100.00;101437.94;5085882;27;20211;-77
2023/01/06 02:20:28;;;;;;;10.43;2.15;;;;;;;11.25;100.00;101429.47;5115434;27;20498;-76
2023/01/06 02:23:02;;;;;;;16.13;2.15;;;;;;;11.22;100.00;101430.56;5120609;27;20385;-77
2023/01/06 02:25:56;;;;;;;8.70;1.98;;;;;;;11.16;100.00;101439.22;5094596;27;20123;-77
2023/01/06 02:28:40;;;;;;;9.68;2.17;;;;;;;11.16;100.00;101433.75;5119827;27;20031;-77
2023/01/06 02:31:36;;;;;;;23.48;2.85;;;;;;;11.01;100.00;101410.19;5120392;27;20035;-77
2023/01/06 02:34:14;;;;;;;10.32;1.60;;;;;;;11.10;100.00;101422.34;5118898;27;20031;-76
2023/01/06 02:36:52;;;;;;;17.10;2.72;;;;;;;11.06;100.00;101416.22;5130971;27;20066;-76
2023/01/06 02:39:53;;;;;;;10.07;2.00;;;;;;;10.95;100.00;101418.84;5101916;27;20108;-76
2023/01/06 02:42:27;;;;;;;8.57;2.08;;;;;;;10.95;100.00;101416.13;5098048;27;20035;-76
2023/01/06 02:45:09;;;;;;;9.88;1.80;;;;;;;11.01;100.00;101416.56;5117785;27;20027;-76
2023/01/06 02:48:01;;;;;;;17.08;2.40;;;;;;;10.94;100.00;101403.41;5137420;27;20046;-77
2023/01/06 02:50:56;;;;;;;9.48;2.25;;;;;;;11.07;100.00;101404.28;5119044;27;20053;-76
2023/01/06 02:53:27;;;;;;;6.30;1.70;;;;;;;10.99;100.00;101402.09;5115853;27;20122;-77
2023/01/06 02:55:55;;;;;;;11.95;1.63;;;;;;;10.96;100.00;101394.09;5135027;27;20144;-79
2023/01/06 02:58:34;;;;;;;12.90;2.08;;;;;;;11.00;100.00;101392.00;5110517;27;20058;-77
2023/01/06 03:01:09;;;;;;;9.93;1.60;;;;;;;11.00;100.00;101392.00;5138040;27;20505;-77
2023/01/06 03:03:38;;;;;;;10.93;1.52;;;;;;;10.95;100.00;101384.13;5104346;28;20096;-77
2023/01/06 03:06:08;;;;;;;12.77;1.60;;;;;;;10.94;100.00;101381.50;5100835;27;20075;-76
2023/01/06 03:08:37;;;;;;;11.52;2.08;;;;;;;10.93;100.00;101379.75;5119461;27;20115;-78
2023/01/06 03:11:03;;;;;;;7.63;1.60;;;;;;;10.93;100.00;101366.91;5138559;27;20049;-76
2023/01/06 03:13:38;;;;;;;13.88;1.80;;;;;;;10.91;100.00;101368.03;5068242;27;20122;-77
2023/01/06 03:16:05;;;;;;;12.88;1.95;;;;;;;10.89;100.00;101361.75;5117705;27;20059;-77
2023/01/06 03:18:33;;;;;;;10.25;1.80;;;;;;;10.89;100.00;101359.91;5118271;27;20064;-77
2023/01/06 03:21:03;;;;;;;5.15;1.40;;;;;;;10.93;100.00;101375.13;5137352;27;20458;-77
2023/01/06 03:23:28;;;;;;;14.15;1.60;;;;;;;10.93;100.00;101380.59;5117244;27;20080;-77
2023/01/06 03:25:54;;;;;;;6.78;1.30;;;;;;;10.97;100.00;101371.19;5094214;28;20080;-77
2023/01/06 03:28:19;;;;;;;14.90;1.67;;;;;;;10.99;100.00;101368.34;5117402;27;20455;-76
2023/01/06 03:30:55;;;;;;;7.93;1.20;;;;;;;11.00;100.00;101373.72;5117515;27;20114;-76
2023/01/06 03:33:28;;;;;;;9.05;1.83;;;;;;;10.99;100.00;101376.56;5117996;27;20023;-77
2023/01/06 03:36:07;;;;;;;9.27;1.02;;;;;;;10.99;100.00;101384.78;5136724;27;20034;-76
2023/01/06 03:38:58;;;;;;;7.30;1.52;;;;;;;11.04;100.00;101367.00;5136158;27;20070;-76
2023/01/06 03:44:50;;;;;;;12.90;1.42;;;;;;;11.00;100.00;101353.63;5135593;27;20465;-77
2023/01/06 03:47:30;;;;;;;5.63;1.55;;;;;;;10.99;100.00;101360.13;5116304;27;20043;-77
2023/01/06 03:50:06;;;;;;;7.50;1.27;;;;;;;11.02;100.00;101365.38;5135899;27;20027;-77
2023/01/06 03:52:39;;;;;;;3.85;1.23;;;;;;;11.08;100.00;101358.56;5116986;27;20061;-77
2023/01/06 03:55:13;;;;;;;8.02;1.20;;;;;;;11.08;100.00;101350.34;5115918;27;20046;-77
2023/01/06 03:57:43;;;;;;;8.10;1.23;;;;;;;11.10;100.00;101351.09;5117330;27;20035;-77
2023/01/06 04:00:22;;;;;;;10.73;1.58;;;;;;;11.09;100.00;101358.47;5117606;27;20085;-77
2023/01/06 04:02:48;;;;;;;9.48;1.35;;;;;;;11.10;100.00;101349.25;5099809;27;20042;-77
2023/01/06 04:05:17;;;;;;;3.80;1.42;;;;;;;11.10;100.00;101351.09;5074426;28;20048;-76
2023/01/06 04:07:43;;;;;;;7.97;1.20;;;;;;;11.11;100.00;101345.50;5094661;27;20023;-77
2023/01/06 04:10:10;;;;;;;2.38;1.08;;;;;;;11.13;100.00;101351.75;5136663;27;20035;-77
2023/01/06 04:12:38;;;;;;;5.88;1.23;;;;;;;11.10;100.00;101349.25;5100355;27;20079;-77
2023/01/06 04:15:05;;;;;;;6.28;1.00;;;;;;;11.14;100.00;101364.47;5084435;27;20173;-76
2023/01/06 04:17:30;;;;;;;4.10;1.55;;;;;;;11.10;100.00;101356.59;5134022;27;20059;-77
2023/01/06 04:19:57;;;;;;;8.05;1.50;;;;;;;11.00;100.00;101359.13;5115547;27;20028;-77
2023/01/06 04:22:22;;;;;;;6.10;1.55;;;;;;;11.02;100.00;101360.78;5099351;27;20129;-77
2023/01/06 04:24:48;;;;;;;8.82;1.67;;;;;;;11.00;100.00;101340.84;5134544;27;20110;-77
2023/01/06 04:27:13;;;;;;;9.77;1.33;;;;;;;11.03;100.00;101334.22;5098133;27;20122;-76
2023/01/06 04:29:39;;;;;;;23.42;1.70;;;;;;;11.04;100.00;101336.88;5100573;27;20045;-77
2023/01/06 04:32:04;;;;;;;6.82;1.30;;;;;;;11.01;100.00;101337.09;5119152;27;20023;-78
2023/01/06 04:34:30;;;;;;;6.47;1.10;;;;;;;10.96;100.00;101332.94;5100239;27;20035;-78
2023/01/06 04:36:55;;;;;;;5.80;1.17;;;;;;;11.03;100.00;101329.66;5098278;28;20130;-78
2023/01/06 04:39:21;;;;;;;6.57;1.08;;;;;;;11.07;100.00;101318.44;5100584;27;20064;-77
2023/01/06 04:41:47;;;;;;;4.97;1.33;;;;;;;11.19;100.00;101314.81;5100682;28;20080;-78
2023/01/06 04:44:13;;;;;;;6.38;1.20;;;;;;;11.05;100.00;101321.28;5078609;28;20042;-78
2023/01/06 04:46:38;;;;;;;7.90;1.50;;;;;;;11.08;100.00;101310.09;5116874;28;20467;-78
2023/01/06 04:49:04;;;;;;;3.30;1.00;;;;;;;11.02;100.00;101310.59;5135462;27;20031;-78
2023/01/06 04:51:30;;;;;;;4.35;0.88;;;;;;;11.01;100.00;101317.03;5118343;28;20039;-77
2023/01/06 04:53:55;;;;;;;3.90;1.15;;;;;;;11.00;100.00;101307.06;5100220;28;20489;-77
2023/01/06 04:56:21;;;;;;;7.28;1.10;;;;;;;11.06;100.00;101294.78;5117986;28;20039;-78
2023/01/06 04:58:47;;;;;;;5.10;1.48;;;;;;;10.92;100.00;101277.50;5082932;28;20436;-78
2023/01/06 05:01:14;;;;;;;7.10;1.30;;;;;;;10.91;100.00;101285.84;5102057;28;20031;-78
2023/01/06 05:03:40;;;;;;;5.85;1.10;;;;;;;10.98;100.00;101285.25;5100465;28;20059;-78
2023/01/06 05:06:09;;;;;;;5.80;1.33;;;;;;;10.98;100.00;101276.16;5118114;28;20036;-78
2023/01/06 05:08:36;;;;;;;7.95;1.23;;;;;;;11.03;100.00;101282.16;5114533;28;20031;-78
2023/01/06 05:11:04;;;;;;;4.80;1.30;;;;;;;11.05;100.00;101277.44;5101097;28;20041;-78
2023/01/06 05:13:31;;;;;;;6.07;1.65;;;;;;;10.96;100.00;101264.44;5134587;27;20030;-78
2023/01/06 05:15:56;;;;;;;5.63;1.17;;;;;;;10.93;100.00;101276.50;5097275;28;20035;-78
2023/01/06 05:18:22;;;;;;;6.60;1.45;;;;;;;10.94;100.00;101277.41;5118312;28;20046;-78
2023/01/06 05:20:53;;;;;;;5.15;0.98;;;;;;;10.83;100.00;101262.59;5101158;28;20469;-77
2023/01/06 05:23:19;;;;;;;7.15;1.10;;;;;;;10.86;100.00;101261.50;5100002;28;20016;-77
2023/01/06 05:25:45;;;;;;;2.05;1.10;;;;;;;10.91;100.00;101270.25;5099908;28;20468;-77
2023/01/06 05:28:12;;;;;;;6.90;1.60;;;;;;;10.89;100.00;101271.34;5134740;28;20034;-78
2023/01/06 05:30:38;;;;;;;4.10;1.27;;;;;;;10.89;100.00;101264.03;5116392;28;20061;-78
2023/01/06 05:33:03;;;;;;;3.75;1.08;;;;;;;10.90;100.00;101265.75;5082903;28;20043;-78
2023/01/06 05:35:29;;;;;;;6.55;1.00;;;;;;;10.88;100.00;101262.28;5116924;28;20546;-78
2023/01/06 05:37:54;;;;;;;4.38;1.13;;;;;;;10.85;100.00;101266.13;5083141;28;20051;-78
2023/01/06 05:40:19;;;;;;;3.92;1.50;;;;;;;10.90;100.00;101268.50;5066411;28;20035;-78
2023/01/06 05:42:45;;;;;;;4.05;1.08;;;;;;;10.84;100.00;101253.41;5118502;28;20031;-78
2023/01/06 05:45:10;;;;;;;10.50;1.85;;;;;;;10.84;100.00;101264.38;5066807;28;20118;-78
2023/01/06 05:47:36;;;;;;;2.80;1.25;;;;;;;10.88;100.00;101256.78;5082570;28;20039;-78
2023/01/06 05:50:02;;;;;;;7.10;1.30;;;;;;;10.87;100.00;101265.13;5116089;28;20031;-78
2023/01/06 05:52:27;;;;;;;7.07;1.42;;;;;;;10.92;100.00;101263.81;5118160;28;20027;-78
2023/01/06 05:54:53;;;;;;;6.55;1.67;;;;;;;10.96;100.00;101278.16;5135450;27;20494;-78
2023/01/06 05:57:18;;;;;;;6.80;1.30;;;;;;;10.96;100.00;101278.16;5101776;28;20060;-77
2023/01/06 05:59:44;;;;;;;5.35;1.30;;;;;;;10.91;100.00;101263.91;5117389;27;20033;-78
2023/01/06 06:02:09;;;;;;;8.23;1.15;;;;;;;10.95;100.00;101268.16;5118714;27;20031;-77
2023/01/06 06:04:36;;;;;;;7.65;1.38;;;;;;;10.96;100.00;101268.06;5121350;27;20424;-78
2023/01/06 06:07:01;;;;;;;5.90;1.30;;;;;;;11.01;100.00;101265.84;5104377;27;20040;-78
2023/01/06 06:09:27;;;;;;;3.88;1.33;;;;;;;11.08;100.00;101269.00;5085857;27;20059;-78
2023/01/06 06:11:53;;;;;;;6.38;1.85;;;;;;;11.02;100.00;101269.47;5122040;27;20038;-78
2023/01/06 06:14:19;;;;;;;7.05;1.30;;;;;;;11.04;100.00;101278.44;5122197;27;20076;-78
2023/01/06 06:16:45;;;;;;;2.20;0.88;;;;;;;10.91;100.00;101269.41;5139103;27;20035;-78
2023/01/06 06:19:12;;;;;;;4.78;1.23;;;;;;;11.01;100.00;101279.53;5098421;27;20115;-78
2023/01/06 06:21:38;;;;;;;4.05;1.33;;;;;;;10.98;100.00;101270.69;5121000;27;20548;-78
2023/01/06 06:24:03;;;;;;;8.18;2.70;;;;;;;11.09;100.00;101281.72;5122960;27;20095;-78
2023/01/06 06:26:29;;;;;;;6.25;1.50;;;;;;;11.06;100.00;101279.22;5112304;27;20035;-78
2023/01/06 06:28:55;;;;;;;8.85;1.60;;;;;;;11.03;100.00;101288.56;5119781;27;20031;-78
2023/01/06 06:31:26;;;;;;;6.10;1.50;;;;;;;11.01;100.00;101282.28;5102054;27;20514;-78
2023/01/06 06:33:57;;;;;;;4.68;1.27;;;;;;;11.01;100.00;101276.81;5120071;27;20456;-78
2023/01/06 06:36:24;;;;;;;4.43;1.35;;;;;;;11.03;100.00;101274.84;5097986;27;20042;-78
2023/01/06 06:38:51;;;;;;;9.60;1.77;;;;;;;11.07;100.00;101282.81;5116664;27;20087;-78
2023/01/06 06:41:17;;;;;;;3.00;1.40;;;;;;;11.08;100.00;101268.13;5119556;27;20039;-78
2023/01/06 06:43:43;;;;;;;9.77;1.58;;;;;;;11.09;100.00;101272.63;5138379;27;20110;-77
2023/01/06 06:46:09;;;;;;;5.72;1.35;;;;;;;11.13;100.00;101271.41;5118775;27;20072;-78
2023/01/06 06:48:35;;;;;;;2.60;1.35;;;;;;;11.15;100.00;101275.78;5100144;27;20148;-78
2023/01/06 06:51:04;;;;;;;4.50;1.00;;;;;;;11.12;100.00;101278.75;5138173;27;20035;-78
2023/01/06 06:53:32;;;;;;;1.85;1.20;;;;;;;11.15;100.00;101264.81;5118097;27;20058;-78
2023/01/06 06:55:57;;;;;;;6.82;1.60;;;;;;;11.18;100.00;101267.34;5118661;27;20035;-77
2023/01/06 06:58:24;;;;;;;4.10;1.40;;;;;;;11.22;100.00;101270.72;5112962;27;20041;-78
2023/01/06 07:00:50;;;;;;;5.32;1.23;;;;;;;11.08;100.00;101266.25;5115649;27;20031;-78
2023/01/06 07:03:15;;;;;;;4.80;1.40;;;;;;;11.14;100.00;101262.19;5135412;27;20088;-78
2023/01/06 07:05:43;;;;;;;4.25;1.67;;;;;;;11.13;100.00;101277.75;5099943;27;20309;-77
2023/01/06 07:08:09;;;;;;;2.17;1.10;;;;;;;11.04;100.00;101270.22;5136607;27;20034;-77
2023/01/06 07:10:35;;;;;;;3.45;1.60;;;;;;;11.12;100.00;101277.91;5099968;27;20039;-78
2023/01/06 07:13:00;;;;;;;3.10;1.35;;;;;;;11.14;100.00;101278.66;5097297;27;20087;-78
2023/01/06 07:15:26;;;;;;;3.55;1.40;;;;;;;11.09;100.00;101278.13;5117049;27;20197;-77
2023/01/06 07:17:51;;;;;;;12.30;1.70;;;;;;;11.04;100.00;101265.63;5099821;27;20042;-77
2023/01/06 07:20:16;;;;;;;5.30;2.30;;;;;;;11.02;100.00;101266.75;5097557;27;20055;-77
2023/01/06 07:22:42;;;;;;;5.10;1.67;;;;;;;11.06;100.00;101281.94;5099372;27;20117;-76
2023/01/06 07:25:08;;;;;;;7.53;1.92;;;;;;;11.05;100.00;101277.44;5099494;27;20474;-76
2023/01/06 07:27:35;;;;;;;7.15;1.52;;;;;;;11.06;100.00;101284.69;5135698;27;20126;-78
2023/01/06 07:30:01;;;;;;;17.38;2.75;;;;;;;11.07;100.00;101277.34;5115333;27;20207;-77
2023/01/06 07:32:27;;;;;;;5.05;1.80;;;;;;;11.07;100.00;101285.56;5136601;27;20032;-76
2023/01/06 07:34:52;;;;;;;5.32;1.60;;;;;;;11.09;100.00;101295.41;5099519;27;20039;-76
2023/01/06 07:37:18;;;;;;;3.55;1.77;;;;;;;11.02;100.00;101284.03;5110903;28;20052;-76
2023/01/06 07:39:43;;;;;;;15.55;2.78;;;;;;;11.10;100.00;101299.94;5113258;28;20027;-77
2023/01/06 07:42:09;;;;;;;11.25;2.50;;;;;;;11.08;100.00;101295.53;5074509;28;20070;-75
2023/01/06 07:44:35;;;;;;;4.57;1.92;;;;;;;11.09;100.00;101300.91;5112727;28;20042;-75
2023/01/06 07:47:00;;;;;;;4.95;2.53;;;;;;;11.13;100.00;101304.28;5111257;28;20487;-75
2023/01/06 07:49:26;;;;;;;1.60;1.50;;;;;;;10.98;100.00;101303.56;5109540;28;20050;-76
2023/01/06 07:51:51;;;;;;;5.35;1.90;;;;;;;11.03;100.00;101307.72;5095196;28;20040;-76
2023/01/06 07:54:17;;;;;;;1.98;1.63;;;;;;;10.92;100.00;101310.38;5089831;28;20061;-75
2023/01/06 07:56:42;;;;;;;1.95;1.70;;;;;;;10.93;100.00;101319.47;5091674;28;20036;-75
2023/01/06 07:59:08;;;;;;;6.43;2.20;;;;;;;10.93;100.00;101309.38;5078383;28;20031;-76
2023/01/06 08:01:34;;;;;;;4.97;1.90;;;;;;;11.01;100.00;101322.53;5112658;28;20040;-76
2023/01/06 08:03:59;;;;;;;5.65;2.08;;;;;;;10.97;100.00;101327.34;5112472;28;20106;-76
2023/01/06 08:06:25;;;;;;;4.65;2.30;;;;;;;10.81;100.00;101319.38;5109506;28;20038;-76
2023/01/06 08:08:50;;;;;;;10.63;2.40;;;;;;;11.00;100.00;101323.50;5109589;28;20042;-76
2023/01/06 08:11:16;;;;;;;4.15;1.77;;;;;;;10.90;100.00;101319.69;5093187;28;20394;-76
2023/01/06 08:13:41;;;;;;;2.72;1.88;;;;;;;10.83;100.00;101322.00;5111878;28;20035;-76
2023/01/06 08:16:09;;;;;;;4.05;2.33;;;;;;;10.93;100.00;101333.16;5076859;28;20039;-76
2023/01/06 08:18:35;;;;;;;5.00;2.10;;;;;;;10.77;100.00;101333.41;5101507;28;20040;-76
2023/01/06 08:21:05;;;;;;;4.95;2.30;;;;;;;10.67;100.00;101335.91;5099010;28;20035;-76
2023/01/06 08:23:31;;;;;;;7.93;2.65;;;;;;;10.74;100.00;101344.56;5103567;28;20039;-76
2023/01/06 08:26:13;;;;;;;6.45;2.60;;;;;;;10.75;100.00;101341.72;5105015;28;20032;-75
2023/01/06 08:28:44;;;;;;;7.57;2.70;;;;;;;10.71;100.00;101353.91;5102849;28;20039;-76
2023/01/06 08:31:14;;;;;;;6.93;2.92;;;;;;;10.68;100.00;101345.03;5108370;28;20085;-75
2023/01/06 08:33:40;;;;;;;7.63;3.20;;;;;;;10.68;100.00;101354.13;5086279;28;20028;-75
2023/01/06 08:36:07;;;;;;;8.85;3.08;;;;;;;10.72;100.00;101352.03;5104881;28;20112;-75
2023/01/06 08:38:35;;;;;;;7.25;3.80;;;;;;;10.75;100.00;101363.63;5074639;28;20044;-75
2023/01/06 08:41:01;;;;;;;4.15;2.90;;;;;;;10.69;100.00;101364.09;5074910;28;20035;-75
2023/01/06 08:43:27;;;;;;;7.93;4.40;;;;;;;10.72;100.00;101368.47;5075636;28;20063;-75
2023/01/06 08:45:58;;;;;;;7.75;4.05;;;;;;;10.70;100.00;101382.25;5090036;28;20060;-75
2023/01/06 08:48:23;;;;;;;6.07;2.95;;;;;;;10.59;100.00;101371.19;5085446;28;20032;-76
2023/01/06 08:50:49;;;;;;;16.73;3.45;;;;;;;10.69;100.00;101374.16;5085208;28;20029;-75
2023/01/06 08:53:14;;;;;;;6.65;3.58;;;;;;;10.74;100.00;101380.19;5088848;28;20048;-77
2023/01/06 08:55:41;;;;;;;5.55;3.85;;;;;;;10.65;100.00;101368.03;5059055;28;20470;-77
2023/01/06 08:58:08;;;;;;;5.97;3.35;;;;;;;10.76;100.00;101370.88;5077478;28;20032;-79
2023/01/06 09:00:35;;;;;;;4.53;3.55;;;;;;;10.75;100.00;101379.19;5072817;28;20040;-76
2023/01/06 09:03:01;;;;;;;4.97;3.47;;;;;;;10.78;100.00;101379.84;5075188;28;20091;-77
2023/01/06 09:05:26;;;;;;;4.32;3.88;;;;;;;10.77;100.00;101399.13;5090911;28;20119;-75
2023/01/06 09:07:53;;;;;;;6.85;3.63;;;;;;;10.81;100.00;101396.06;5086084;28;20051;-78
2023/01/06 09:10:19;;;;;;;4.05;3.10;;;;;;;10.76;100.00;101394.66;5096698;28;20052;-77
2023/01/06 09:12:45;;;;;;;5.50;3.42;;;;;;;10.82;100.00;101408.78;5087697;28;20399;-77
2023/01/06 09:15:12;;;;;;;5.78;3.40;;;;;;;10.80;100.00;101402.53;5102619;28;20040;-77
2023/01/06 09:17:38;;;;;;;5.40;3.28;;;;;;;10.98;100.00;101403.06;5092677;28;20059;-77
2023/01/06 09:20:04;;;;;;;4.18;3.40;;;;;;;11.05;100.00;101417.19;5092934;28;20028;-77
2023/01/06 09:22:30;;;;;;;7.20;3.88;;;;;;;11.05;100.00;101417.19;5071003;28;20110;-82
2023/01/06 09:24:55;;;;;;;7.55;4.22;;;;;;;11.05;100.00;101419.94;5089008;28;20016;-77
2023/01/06 09:27:21;;;;;;;4.90;3.58;;;;;;;11.07;100.00;101422.56;5086584;28;20509;-77
2023/01/06 09:29:46;;;;;;;5.10;3.75;;;;;;;11.08;100.00;101425.19;5083736;28;20495;-77
2023/01/06 09:32:12;;;;;;;4.32;3.85;;;;;;;11.07;100.00;101434.44;5108231;28;20513;-77
2023/01/06 09:34:37;;;;;;;4.15;2.75;;;;;;;11.12;100.00;101437.72;5095282;28;20111;-78
2023/01/06 09:37:03;;;;;;;6.38;3.80;;;;;;;11.21;100.00;101437.06;5081452;27;20032;-77
2023/01/06 09:39:29;;;;;;;5.47;3.35;;;;;;;11.21;100.00;101441.63;5103175;27;20106;-77
2023/01/06 09:42:00;;;;;;;7.57;2.95;;;;;;;11.27;100.00;101451.31;5104263;27;20030;-78
2023/01/06 09:44:32;;;;;;;12.80;3.17;;;;;;;11.30;100.00;101453.81;5093668;27;20032;-78
2023/01/06 09:47:00;;;;;;;10.13;3.20;;;;;;;11.35;100.00;101449.75;5120653;27;20512;-77
2023/01/06 09:49:50;;;;;;;5.38;3.03;;;;;;;11.37;100.00;101455.13;5103035;27;20055;-77
2023/01/06 09:52:27;;;;;;;4.70;2.60;;;;;;;11.40;100.00;101458.50;5100852;27;20054;-77
2023/01/06 09:54:58;;;;;;;9.10;2.70;;;;;;;11.51;100.00;101459.56;5117488;27;20436;-77
2023/01/06 09:57:32;;;;;;;8.48;2.60;;;;;;;11.65;100.00;101461.31;5131370;27;20062;-78
2023/01/06 10:00:01;;;;;;;3.00;2.60;;;;;;;11.89;100.00;101467.72;5101828;27;20035;-79
2023/01/06 10:02:39;;;;;;;5.28;2.80;;;;;;;11.65;100.00;101456.69;5139302;27;20031;-76
2023/01/06 10:05:36;;;;;;;4.90;2.75;;;;;;;11.75;100.00;101471.47;5131669;27;20031;-79
2023/01/06 10:08:44;;;;;;;5.93;3.05;;;;;;;11.94;100.00;101476.50;5120807;27;20478;-77
2023/01/06 10:11:19;;;;;;;9.02;2.63;;;;;;;11.97;100.00;101474.53;5079044;27;20428;-76
2023/01/06 10:13:52;;;;;;;5.18;3.28;;;;;;;12.03;100.00;101471.31;5116225;28;20039;-77
2023/01/06 10:16:18;;;;;;;9.18;3.05;;;;;;;11.88;100.00;101476.06;5130367;27;20482;-77
2023/01/06 10:19:11;;;;;;;6.38;2.92;;;;;;;11.94;100.00;101481.13;5101497;28;20038;-77
2023/01/06 10:22:07;;;;;;;6.95;2.90;;;;;;;11.86;100.00;101483.53;5116074;27;20035;-77
2023/01/06 10:24:53;;;;;;;4.43;2.40;;;;;;;11.86;100.00;101486.28;5119681;27;20400;-77
2023/01/06 10:27:43;;;;;;;6.53;2.67;;;;;;;11.75;100.00;101471.47;5133308;27;20030;-77
2023/01/06 10:30:24;;;;;;;7.35;3.10;;;;;;;11.79;100.00;101474.91;5119588;27;20043;-77
2023/01/06 10:32:50;;;;;;;4.45;2.55;;;;;;;11.84;100.00;101477.28;5138183;27;20027;-77
2023/01/06 10:35:20;;;;;;;4.47;2.50;;;;;;;11.81;100.00;101474.78;5118610;27;20091;-77
2023/01/06 10:37:48;;;;;;;9.93;3.35;;;;;;;12.00;100.00;101466.06;5119278;27;20039;-77
2023/01/06 10:40:19;;;;;;;6.30;2.95;;;;;;;12.01;100.00;101465.09;5099625;27;20058;-77
2023/01/06 10:42:56;;;;;;;7.10;3.08;;;;;;;11.93;100.00;101469.25;5099996;27;20066;-76
2023/01/06 10:45:42;;;;;;;10.90;3.70;;;;;;;11.91;100.00;101465.75;5117334;27;20471;-78
2023/01/06 10:48:18;;;;;;;7.63;3.10;;;;;;;12.14;100.00;101465.91;5121700;27;20138;-80
2023/01/06 10:50:45;;;;;;;14.18;5.43;;;;;;;12.47;100.00;101461.56;5121539;27;20027;-79
2023/01/06 10:53:13;;;;;;;6.05;2.95;;;;;;;12.92;100.00;101458.06;5140265;27;20456;-80
2023/01/06 10:55:57;;;;;;;7.60;3.22;;;;;;;12.40;100.00;101463.03;5105195;27;20835;-81
2023/01/06 10:58:45;;;;;;;10.40;4.68;;;;;;;12.22;100.00;101468.06;5103016;27;20023;-81
2023/01/06 11:01:16;;;;;;;10.10;4.28;;;;;;;12.10;100.00;101465.25;5114456;27;20062;-81
2023/01/06 11:03:44;;;;;;;7.70;4.60;;;;;;;12.20;100.00;101467.28;5120345;27;20043;-81
2023/01/06 11:06:09;;;;;;;14.50;4.95;;;;;;;12.17;100.00;101468.41;5087116;27;20394;-81
2023/01/06 11:08:36;;;;;;;7.18;3.90;;;;;;;12.06;100.00;101463.72;5127401;27;20079;-81
2023/01/06 11:11:08;;;;;;;11.73;4.85;;;;;;;12.10;100.00;101473.50;5105682;27;20057;-81
2023/01/06 11:13:35;;;;;;;7.88;5.68;;;;;;;12.38;100.00;101470.50;5139563;27;20042;-81
2023/01/06 11:16:04;;;;;;;15.02;4.15;;;;;;;12.53;100.00;101477.56;5139780;27;20028;-80
2023/01/06 11:18:33;;;;;;;14.70;4.75;;;;;;;12.87;100.00;101459.31;5099057;27;20087;-81
2023/01/06 11:21:04;;;;;;;18.65;4.72;;;;;;;12.61;100.00;101464.09;5123554;27;20031;-81
2023/01/06 11:23:29;;;;;;;10.50;4.53;;;;;;;12.67;100.00;101462.75;5122504;27;20122;-81
2023/01/06 11:26:09;;;;;;;19.58;6.10;;;;;;;12.63;100.00;101469.50;5105776;27;20063;-81
2023/01/06 11:28:34;;;;;;;11.30;4.60;;;;;;;12.91;100.00;101462.69;5122942;27;20420;-81